Ouro Branco, Brazil
Current Conditions -  °F | °C
As of 8:00 AM on Monday 20 Oct 2014 (Local Time) from SBPR Reporting Station
Clear Clear  
Wind Chill: 72°   Ceiling: Unl
Heat Index: 72°   Visibility: 5mi
Dew Point: 64°   Wind: 6mph
Humidity: 78%   Direction: 100°E
Pressure: 30.06"   Gusts: NA
Location:  20.52°S, 43.69°W
Report Text: SBPR 201100Z 10005KT 8000 NSC 22/18 Q1018
Loading
Personal Weather Stations






























Interactive Weather Map
Tropical Storm Tracking
New forecast layout! Learn more

10-Day Weather Forecast

Advertisements
Track Severe Weather on mobile